Terminal Aerodrome Forecast
Issued by NWS Columbia, SC

Home | Current Version | Previous Version | Text Only | Print | Product List | Glossary On
Versions: 1 2 3 4 5 6 7 8 9 10 11 12 13 14 15 16 17 18 19 20 21 22 23 24 25 26 27 28 29 30 31 32 33 34 35 36 37 38 39 40 41 42 43 44 45
370
FTAK31 PAJN 160536
TAFAGS
TAF
PAGS 160536Z 1606/1706 13008KT P6SM VCSH OVC035
      TEMPO 1608/1610 13010G15KT 6SM -RA BR BKN015 OVC025
     FM161000 14020G30KT 4SM RA BR SCT008 OVC015
     FM162100 22012G18KT 6SM -RA BR BKN015 OVC025
     FM170000 24015G20KT 6SM -RA BR OVC015
     FM170400 22010KT P6SM -SHRA OVC015
      AMD LTD TO CLD VIS AND WIND=

USA.gov is the U.S. government's official web portal to all federal, state and local government web resources and services.